Time;durP1;ratioP1;P1;durP2;ratioP2;P2;SDS_P1;SDS_P2;PMS_P1;PMS_P2;Temp;Humidity;BMP_temperature;BMP_pressure;BME280_temperature;BME280_humidity;BME280_pressure;Samples;Min_cycle;Max_cycle;Signal;HPM_P1;HPM_P2
2022/06/19 00:02:10;;;;;;;4.90;4.45;;;;;;;15.94;75.66;100532.45;1661037;84;21105;-76
2022/06/19 00:04:39;;;;;;;6.08;4.75;;;;;;;15.92;75.98;100535.87;1665649;85;21130;-76
2022/06/19 00:07:05;;;;;;;5.30;4.95;;;;;;;15.91;76.06;100539.06;1665272;85;21085;-73
2022/06/19 00:09:31;;;;;;;;;;;;;;;15.89;76.04;100536.30;1663128;85;21011;-75
2022/06/19 00:11:59;;;;;;;;;;;;;;;15.89;76.16;100534.95;1667575;85;20408;-76
2022/06/19 00:14:25;;;;;;;4.75;4.45;;;;;;;15.82;76.43;100530.96;1657241;84;20443;-76
2022/06/19 00:16:53;;;;;;;6.37;5.75;;;;;;;15.77;76.71;100534.84;1660907;84;21594;-77
2022/06/19 00:19:20;;;;;;;7.28;4.83;;;;;;;15.78;76.90;100537.82;1670983;84;21123;-76
2022/06/19 00:21:47;;;;;;;5.50;4.95;;;;;;;15.80;76.73;100533.05;1670279;84;21047;-77
2022/06/19 00:24:13;;;;;;;4.50;4.20;;;;;;;15.81;76.63;100540.61;1665014;84;21111;-77
2022/06/19 00:26:40;;;;;;;5.40;4.90;;;;;;;15.80;76.58;100537.61;1670088;84;21129;-77
2022/06/19 00:29:06;;;;;;;5.10;4.70;;;;;;;15.76;76.47;100536.72;1668622;84;21096;-77
2022/06/19 00:31:32;;;;;;;5.42;5.00;;;;;;;15.73;76.51;100536.30;1671473;84;21065;-76
2022/06/19 00:33:59;;;;;;;5.17;4.78;;;;;;;15.68;76.70;100528.87;1676752;84;21047;-77
2022/06/19 00:36:27;;;;;;;6.00;4.60;;;;;;;15.65;76.92;100532.02;1683391;84;21010;-76
2022/06/19 00:38:55;;;;;;;6.22;5.60;;;;;;;15.63;77.18;100528.69;1678842;84;21040;-76
2022/06/19 00:41:22;;;;;;;5.83;5.20;;;;;;;15.63;77.18;100531.91;1675449;84;21052;-75
2022/06/19 00:44:04;;;;;;;6.67;5.92;;;;;;;15.62;77.88;100531.09;1684379;84;21078;-76
2022/06/19 00:47:08;;;;;;;5.37;4.90;;;;;;;15.62;77.88;100531.09;1677998;84;21082;-76
2022/06/19 00:49:53;;;;;;;4.95;4.62;;;;;;;15.63;78.20;100531.38;1681316;84;21439;-76
2022/06/19 00:52:33;;;;;;;5.33;4.92;;;;;;;15.64;78.17;100536.25;1680515;84;21066;-75
2022/06/19 00:55:08;;;;;;;5.08;4.62;;;;;;;15.63;77.96;100536.75;1682684;84;21109;-76
2022/06/19 00:57:38;;;;;;;4.90;4.50;;;;;;;15.63;78.34;100542.66;1684133;84;21089;-76
2022/06/19 01:00:13;;;;;;;7.92;5.00;;;;;;;15.63;78.20;100546.16;1682970;84;21042;-76
2022/06/19 01:02:42;;;;;;;9.50;6.22;;;;;;;15.60;78.12;100541.23;1673044;84;21130;-76
2022/06/19 01:05:12;;;;;;;5.83;5.30;;;;;;;15.57;78.11;100538.97;1635822;86;21094;-76
2022/06/19 01:07:42;;;;;;;5.87;5.28;;;;;;;15.52;78.33;100532.06;1637973;86;21542;-76
2022/06/19 01:10:12;;;;;;;6.08;5.47;;;;;;;15.50;78.70;100532.80;1638616;86;21026;-77
2022/06/19 01:12:41;;;;;;;5.60;5.20;;;;;;;15.49;78.79;100540.58;1642991;85;21683;-74
2022/06/19 01:15:12;;;;;;;5.92;5.33;;;;;;;15.48;78.91;100538.91;1605369;88;21133;-76
2022/06/19 01:17:40;;;;;;;5.22;4.72;;;;;;;15.45;78.95;100529.44;1618049;86;21154;-76
2022/06/19 01:20:11;;;;;;;6.47;4.72;;;;;;;15.42;79.07;100533.88;1633509;87;22097;-77
2022/06/19 01:22:55;;;;;;;5.50;5.03;;;;;;;15.38;79.14;100538.86;1622800;86;21590;-77
2022/06/19 01:25:32;;;;;;;6.17;5.40;;;;;;;15.38;79.64;100538.05;1661191;85;21704;-75
2022/06/19 01:30:53;;;;;;;5.60;5.00;;;;;;;15.36;79.62;100538.78;1642471;85;21054;-76
2022/06/19 01:33:34;;;;;;;9.13;5.62;;;;;;;15.32;79.75;100537.05;1665046;85;21161;-76
2022/06/19 01:36:04;;;;;;;6.83;6.33;;;;;;;15.32;79.95;100537.05;1630787;86;21093;-75
2022/06/19 01:38:33;;;;;;;6.58;5.78;;;;;;;15.33;80.02;100539.20;1648094;85;21046;-75
2022/06/19 01:41:06;;;;;;;6.35;5.72;;;;;;;15.33;80.06;100540.05;1665087;85;22203;-75
2022/06/19 01:43:37;;;;;;;12.37;6.20;;;;;;;15.34;80.00;100532.28;1649598;85;21026;-76
2022/06/19 01:46:04;;;;;;;6.12;5.35;;;;;;;15.34;80.32;100540.34;1665458;85;21569;-76
2022/06/19 01:48:33;;;;;;;5.90;5.47;;;;;;;15.37;80.23;100541.27;1645022;85;21529;-75
2022/06/19 01:51:04;;;;;;;5.37;4.97;;;;;;;15.41;80.18;100544.84;1666789;85;21085;-75
2022/06/19 01:53:50;;;;;;;6.80;6.20;;;;;;;15.41;79.80;100547.52;1622348;86;21037;-75
2022/06/19 01:56:16;;;;;;;6.33;5.80;;;;;;;15.39;79.70;100546.42;1661487;84;21534;-75
2022/06/19 01:58:47;;;;;;;6.30;5.83;;;;;;;15.37;79.82;100549.31;1649380;85;21498;-76
2022/06/19 02:01:13;;;;;;;6.53;6.00;;;;;;;15.38;79.82;100540.20;1666241;85;21078;-76
2022/06/19 02:03:55;;;;;;;5.55;5.15;;;;;;;15.42;79.86;100545.16;1648322;86;22203;-77
2022/06/19 02:06:29;;;;;;;6.60;6.08;;;;;;;15.46;79.75;100542.34;1665192;85;21106;-76
2022/06/19 02:08:55;;;;;;;5.80;5.30;;;;;;;15.49;79.76;100542.73;1648638;85;21073;-75
2022/06/19 02:11:23;;;;;;;6.25;5.67;;;;;;;15.54;79.77;100543.45;1665859;84;21062;-75
2022/06/19 02:13:49;;;;;;;7.25;5.50;;;;;;;15.61;79.80;100541.52;1655007;85;21598;-75
2022/06/19 02:16:20;;;;;;;6.15;5.65;;;;;;;15.68;79.56;100541.48;1663945;85;21050;-75
2022/06/19 02:18:51;;;;;;;7.85;5.83;;;;;;;15.79;79.37;100546.73;1659936;85;21066;-76
2022/06/19 02:21:41;;;;;;;6.97;5.83;;;;;;;16.02;79.56;100550.98;1651512;85;21181;-76
2022/06/19 02:24:13;;;;;;;5.00;4.60;;;;;;;16.43;78.56;100550.13;1633938;86;21065;-76
2022/06/19 02:26:43;;;;;;;5.70;5.00;;;;;;;16.97;76.82;100549.89;1667862;85;21054;-75
2022/06/19 02:29:12;;;;;;;5.50;5.00;;;;;;;17.53;74.47;100558.68;1663670;85;21568;-76
2022/06/19 02:31:41;;;;;;;6.00;5.50;;;;;;;18.03;72.49;100558.38;1663678;85;20979;-76
2022/06/19 02:34:38;;;;;;;6.08;5.53;;;;;;;18.54;70.44;100558.75;1657267;85;21081;-76
2022/06/19 02:37:12;;;;;;;5.78;5.28;;;;;;;18.90;68.31;100560.09;1658380;85;21085;-77
2022/06/19 02:39:53;;;;;;;6.65;5.85;;;;;;;19.06;66.80;100560.69;1664899;85;22130;-76
2022/06/19 02:42:31;;;;;;;7.15;5.20;;;;;;;19.05;66.22;100561.22;1663477;85;21137;-76
2022/06/19 02:45:01;;;;;;;7.15;5.85;;;;;;;18.96;66.10;100564.00;1663504;84;21028;-77
2022/06/19 02:47:33;;;;;;;4.90;4.53;;;;;;;18.89;66.15;100562.49;1664030;85;21026;-77
2022/06/19 02:50:04;;;;;;;6.65;5.72;;;;;;;19.12;66.54;100562.45;1664037;85;21190;-76
2022/06/19 02:52:32;;;;;;;6.05;5.33;;;;;;;19.67;65.35;100547.53;1667212;85;21074;-76
2022/06/19 02:54:58;;;;;;;6.17;5.67;;;;;;;20.31;63.29;100545.08;1637030;86;20983;-77
2022/06/19 02:57:25;;;;;;;6.12;5.53;;;;;;;20.91;61.06;100540.23;1638207;85;21060;-76
2022/06/19 02:59:53;;;;;;;5.40;5.00;;;;;;;21.46;59.40;100537.08;1661285;85;21055;-77
2022/06/19 03:02:20;;;;;;;5.72;5.12;;;;;;;22.00;57.70;100534.86;1647933;85;21097;-77
2022/06/19 03:04:56;;;;;;;5.60;4.92;;;;;;;22.54;55.88;100536.58;1665660;85;21505;-77
2022/06/19 03:07:25;;;;;;;5.45;5.03;;;;;;;23.02;53.78;100536.00;1655876;85;21061;-77
2022/06/19 03:09:51;;;;;;;8.20;4.90;;;;;;;23.49;52.25;100536.97;1663557;85;21508;-77
2022/06/19 03:12:17;;;;;;;4.85;4.42;;;;;;;23.90;51.04;100532.92;1651620;85;21018;-77
2022/06/19 03:14:44;;;;;;;6.58;4.42;;;;;;;24.26;50.15;100528.80;1670566;85;21097;-77
2022/06/19 03:17:19;;;;;;;5.87;5.37;;;;;;;24.60;49.13;100522.23;1644934;86;21125;-77
2022/06/19 03:19:46;;;;;;;5.90;4.70;;;;;;;24.90;48.33;100520.45;1663768;85;21105;-77
2022/06/19 03:22:12;;;;;;;4.70;4.35;;;;;;;25.24;47.67;100522.49;1643579;85;21661;-77
2022/06/19 03:24:39;;;;;;;4.67;4.28;;;;;;;25.55;46.23;100521.75;1664474;85;21090;-76
2022/06/19 03:27:07;;;;;;;4.90;4.33;;;;;;;25.83;45.65;100520.16;1652443;86;21418;-77
2022/06/19 03:29:34;;;;;;;5.12;4.20;;;;;;;26.16;44.37;100518.26;1672485;85;21089;-78
2022/06/19 03:32:00;;;;;;;5.58;4.95;;;;;;;26.47;43.51;100514.66;1654332;85;21114;-78
2022/06/19 03:34:26;;;;;;;4.65;4.35;;;;;;;26.73;42.31;100515.73;1658107;84;21551;-77
2022/06/19 03:36:53;;;;;;;6.08;4.92;;;;;;;26.96;41.24;100523.11;1651153;84;21445;-77
2022/06/19 03:39:19;;;;;;;5.72;5.22;;;;;;;27.22;40.29;100517.83;1670365;83;20960;-76
2022/06/19 03:41:46;;;;;;;5.80;5.20;;;;;;;27.50;39.56;100521.02;1655237;85;21071;-77
2022/06/19 03:44:12;;;;;;;4.58;4.15;;;;;;;27.82;38.86;100516.67;1664902;85;21181;-77
2022/06/19 03:46:38;;;;;;;4.33;3.98;;;;;;;28.13;38.35;100522.44;1666756;84;21076;-78
2022/06/19 03:49:05;;;;;;;5.40;4.95;;;;;;;28.46;37.51;100513.33;1665857;85;21078;-77
2022/06/19 03:51:32;;;;;;;5.25;4.60;;;;;;;28.74;37.26;100516.91;1664464;85;21094;-77
2022/06/19 03:53:58;;;;;;;6.72;4.47;;;;;;;28.97;36.81;100515.61;1660763;85;21001;-78
2022/06/19 03:56:31;;;;;;;6.05;4.53;;;;;;;29.13;36.44;100516.94;1664043;84;21074;-77
2022/06/19 03:58:58;;;;;;;4.65;4.22;;;;;;;29.29;36.01;100507.77;1661101;85;21030;-78
2022/06/19 04:01:34;;;;;;;5.15;4.35;;;;;;;29.49;35.45;100510.61;1665571;85;21011;-76
2022/06/19 04:04:03;;;;;;;4.10;3.80;;;;;;;29.75;34.82;100507.28;1666169;85;21236;-71
2022/06/19 04:06:35;;;;;;;5.30;4.90;;;;;;;29.89;34.22;100509.36;1665746;84;21043;-74
2022/06/19 04:09:06;;;;;;;5.22;4.70;;;;;;;30.02;34.17;100509.84;1639593;86;21066;-72
2022/06/19 04:11:34;;;;;;;5.97;5.47;;;;;;;30.09;33.11;100508.83;1642678;84;21071;-70
2022/06/19 04:14:02;;;;;;;10.68;9.90;;;;;;;30.18;33.29;100509.45;1700496;83;21061;-72
2022/06/19 04:16:32;;;;;;;21.73;19.85;;;;;;;30.28;32.92;100509.16;1698381;83;20997;-69
2022/06/19 04:19:03;;;;;;;17.00;15.65;;;;;;;30.47;32.80;100516.62;1700534;83;22171;-69
2022/06/19 04:21:32;;;;;;;12.78;11.90;;;;;;;30.71;31.50;100516.78;1700073;83;21033;-70
2022/06/19 04:24:04;;;;;;;21.77;19.85;;;;;;;30.79;30.56;100509.68;1703384;83;21070;-69
2022/06/19 04:26:35;;;;;;;18.70;17.32;;;;;;;30.86;30.46;100508.65;1700703;83;21581;-70
2022/06/19 04:29:03;;;;;;;21.93;20.27;;;;;;;31.05;30.00;100511.93;1700324;83;21123;-70
2022/06/19 04:31:29;;;;;;;13.08;12.23;;;;;;;31.20;29.82;100512.59;1702856;83;21033;-70
2022/06/19 04:33:59;;;;;;;7.33;6.72;;;;;;;31.38;29.55;100506.52;1698507;83;21459;-70
2022/06/19 04:36:28;;;;;;;9.95;9.18;;;;;;;31.48;28.96;100504.84;1688195;83;21047;-71
2022/06/19 04:38:58;;;;;;;9.28;8.53;;;;;;;31.49;29.10;100507.83;1699759;83;21120;-70
2022/06/19 04:41:32;;;;;;;5.78;3.67;;;;;;;31.49;28.71;100503.70;1698747;83;21116;-70
2022/06/19 04:43:59;;;;;;;5.72;5.35;;;;;;;31.54;28.85;100506.30;1695327;83;21525;-71
2022/06/19 04:46:27;;;;;;;4.20;3.85;;;;;;;31.59;28.65;100497.87;1697490;83;21064;-70
2022/06/19 04:48:53;;;;;;;8.33;7.58;;;;;;;31.56;28.32;100501.84;1696540;83;21132;-71
2022/06/19 04:51:21;;;;;;;13.98;13.03;;;;;;;31.27;28.59;100496.95;1702861;83;21076;-69
2022/06/19 04:53:48;;;;;;;10.58;9.83;;;;;;;30.77;28.93;100499.56;1723931;82;21188;-69
2022/06/19 04:56:18;;;;;;;9.45;8.63;;;;;;;30.32;29.69;100499.18;1702400;82;21172;-69
2022/06/19 04:58:45;;;;;;;12.60;11.55;;;;;;;30.05;29.78;100498.23;1698177;83;21099;-71
2022/06/19 05:01:23;;;;;;;8.83;8.13;;;;;;;29.91;30.04;100496.69;1698408;83;21120;-72
2022/06/19 05:03:53;;;;;;;5.78;5.37;;;;;;;29.82;30.17;100502.95;1701008;83;20990;-77
2022/06/19 05:06:20;;;;;;;7.75;7.25;;;;;;;29.78;30.17;100498.39;1706966;83;21062;-75
2022/06/19 05:08:46;;;;;;;4.75;4.33;;;;;;;29.67;30.37;100506.06;1699186;83;21726;-65
2022/06/19 05:11:13;;;;;;;3.17;2.10;;;;;;;29.67;30.39;100501.95;1699936;83;21502;-64
2022/06/19 05:13:41;;;;;;;0.93;0.90;;;;;;;29.74;30.08;100505.64;1698698;83;21085;-66
2022/06/19 05:16:14;;;;;;;2.33;2.20;;;;;;;29.68;30.17;100502.98;1698486;83;21045;-65
2022/06/19 05:18:42;;;;;;;2.80;1.15;;;;;;;29.62;30.41;100501.50;1675711;82;21150;-70
2022/06/19 05:21:09;;;;;;;0.70;0.65;;;;;;;29.74;30.32;100505.06;1697242;83;21121;-65
2022/06/19 05:23:39;;;;;;;0.53;0.47;;;;;;;29.88;30.24;100511.31;1696237;83;21092;-65
2022/06/19 05:26:16;;;;;;;3.98;3.40;;;;;;;29.88;29.78;100514.63;1681181;83;20998;-69
2022/06/19 05:28:44;;;;;;;7.15;6.58;;;;;;;29.73;30.20;100514.98;1700582;83;21093;-66
2022/06/19 05:31:11;;;;;;;13.22;11.95;;;;;;;29.75;30.01;100508.08;1697197;83;21105;-68
2022/06/19 05:33:40;;;;;;;7.12;6.50;;;;;;;29.79;30.37;100509.64;1672832;83;21031;-70
2022/06/19 05:36:07;;;;;;;2.55;2.45;;;;;;;29.88;30.04;100506.39;1700202;82;21086;-69
2022/06/19 05:38:35;;;;;;;11.95;10.90;;;;;;;29.82;30.63;100512.58;1698700;83;21093;-67
2022/06/19 05:41:02;;;;;;;8.68;7.95;;;;;;;29.84;31.30;100519.94;1704187;83;21044;-67
2022/06/19 05:43:31;;;;;;;2.70;2.50;;;;;;;29.91;30.67;100514.55;1692712;83;21025;-64
2022/06/19 05:46:03;;;;;;;4.85;4.65;;;;;;;30.04;30.32;100519.95;1698572;83;20994;-60
2022/06/19 05:48:33;;;;;;;0.60;0.60;;;;;;;30.24;30.69;100522.73;1701735;83;21120;-61
2022/06/19 05:51:04;;;;;;;0.78;0.78;;;;;;;30.45;30.79;100523.58;1697686;83;21064;-60
2022/06/19 05:53:36;;;;;;;0.40;0.40;;;;;;;30.51;29.40;100522.88;1694001;83;21092;-60
2022/06/19 05:56:03;;;;;;;1.60;0.40;;;;;;;30.38;29.34;100518.52;1697462;82;21067;-61
2022/06/19 05:58:30;;;;;;;1.65;0.30;;;;;;;30.19;29.64;100521.48;1698559;83;22101;-61
2022/06/19 06:00:56;;;;;;;0.40;0.33;;;;;;;30.06;30.34;100523.23;1697061;83;21137;-62
2022/06/19 06:03:24;;;;;;;1.95;0.50;;;;;;;30.06;30.01;100525.97;1697232;83;21029;-62
2022/06/19 06:05:51;;;;;;;0.40;0.20;;;;;;;30.09;30.43;100527.27;1695672;83;21497;-62
2022/06/19 06:08:19;;;;;;;0.85;0.30;;;;;;;30.15;29.52;100518.33;1699526;83;21544;-60
2022/06/19 06:10:49;;;;;;;0.55;0.40;;;;;;;30.08;29.58;100518.77;1697944;83;21554;-62
2022/06/19 06:13:17;;;;;;;0.57;0.20;;;;;;;30.06;29.44;100516.35;1704184;83;21260;-60
2022/06/19 06:15:46;;;;;;;0.60;0.20;;;;;;;30.16;29.26;100515.27;1696593;83;21030;-62
2022/06/19 06:18:13;;;;;;;2.50;0.20;;;;;;;30.11;29.20;100521.46;1697127;83;21053;-60
2022/06/19 06:20:40;;;;;;;1.37;0.20;;;;;;;30.00;29.38;100517.59;1695791;83;21077;-59
2022/06/19 06:23:06;;;;;;;0.25;0.10;;;;;;;30.00;30.04;100521.72;1691731;83;21084;-62
2022/06/19 06:25:34;;;;;;;0.20;0.20;;;;;;;30.15;29.39;100516.95;1693478;83;21065;-61
2022/06/19 06:28:02;;;;;;;0.15;0.10;;;;;;;30.28;28.71;100523.72;1703495;83;21025;-62
2022/06/19 06:30:28;;;;;;;0.35;0.10;;;;;;;30.34;28.97;100522.23;1709043;82;21070;-61
2022/06/19 06:32:54;;;;;;;0.30;0.30;;;;;;;30.32;28.47;100521.72;1698216;83;21128;-61
2022/06/19 06:35:20;;;;;;;0.75;0.30;;;;;;;30.18;29.06;100513.58;1698291;83;21005;-62
2022/06/19 06:37:48;;;;;;;0.20;0.20;;;;;;;30.28;28.64;100513.29;1702327;83;21065;-64
2022/06/19 06:40:15;;;;;;;1.15;0.20;;;;;;;30.32;28.59;100515.67;1707637;83;21573;-64
2022/06/19 06:42:42;;;;;;;0.30;0.20;;;;;;;30.36;28.09;100519.41;1697309;83;21013;-62
2022/06/19 06:45:13;;;;;;;0.20;0.20;;;;;;;30.26;28.24;100512.80;1694530;82;21005;-65
2022/06/19 06:47:40;;;;;;;0.65;0.10;;;;;;;30.16;28.39;100507.02;1697063;83;21517;-64
2022/06/19 06:50:08;;;;;;;0.17;0.10;;;;;;;30.13;28.94;100505.46;1698099;83;21037;-61
2022/06/19 06:52:34;;;;;;;0.30;0.30;;;;;;;30.09;28.93;100510.78;1691537;83;21097;-60
2022/06/19 06:55:00;;;;;;;1.82;0.40;;;;;;;30.03;28.98;100511.48;1682330;83;21540;-62
2022/06/19 06:57:27;;;;;;;1.47;0.10;;;;;;;29.96;29.17;100506.98;1698522;83;21111;-61
2022/06/19 06:59:53;;;;;;;1.05;0.10;;;;;;;29.99;28.84;100506.37;1693310;83;21070;-63
2022/06/19 07:02:19;;;;;;;0.28;0.20;;;;;;;29.86;28.56;100501.20;1686855;83;21566;-62
2022/06/19 07:04:45;;;;;;;0.85;0.10;;;;;;;29.86;28.60;100500.39;1693382;83;21065;-62
2022/06/19 07:07:13;;;;;;;0.53;0.30;;;;;;;29.92;27.85;100496.38;1686969;83;21136;-61
2022/06/19 07:09:40;;;;;;;0.23;0.10;;;;;;;29.85;28.91;100497.39;1665846;85;21368;-63
2022/06/19 07:12:08;;;;;;;0.50;0.33;;;;;;;29.65;28.30;100465.17;1655237;85;21041;-62
2022/06/19 07:14:34;;;;;;;0.30;0.10;;;;;;;29.83;28.57;100496.89;1680189;84;21129;-61
2022/06/19 07:17:03;;;;;;;0.47;0.17;;;;;;;29.74;28.20;100491.33;1652692;85;21164;-63
2022/06/19 07:19:30;;;;;;;1.12;0.10;;;;;;;29.71;28.34;100489.20;1655571;85;21076;-62
2022/06/19 07:21:56;;;;;;;0.30;0.20;;;;;;;29.82;28.06;100488.39;1649698;85;21046;-62
2022/06/19 07:24:25;;;;;;;1.22;0.20;;;;;;;29.87;28.53;100482.20;1651047;85;21124;-71
2022/06/19 07:26:52;;;;;;;0.37;0.20;;;;;;;30.02;28.68;100483.73;1629963;87;21093;-62
2022/06/19 07:29:19;;;;;;;0.55;0.30;;;;;;;30.20;28.36;100476.39;1651855;85;21106;-58
2022/06/19 07:31:47;;;;;;;0.20;0.10;;;;;;;30.31;28.18;100476.09;1649636;85;21061;-59
2022/06/19 07:34:13;;;;;;;0.10;0.10;;;;;;;30.29;28.13;100465.44;1651510;85;21077;-58
2022/06/19 07:36:40;;;;;;;0.57;0.10;;;;;;;30.28;28.04;100456.92;1648284;85;21067;-62
2022/06/19 07:39:06;;;;;;;0.28;0.28;;;;;;;30.48;27.62;100465.20;1655046;85;21557;-56
2022/06/19 07:41:32;;;;;;;0.20;0.20;;;;;;;30.44;27.61;100466.94;1654189;85;21593;-58
2022/06/19 07:43:59;;;;;;;0.20;0.20;;;;;;;30.34;27.51;100457.63;1651953;85;21094;-57
2022/06/19 07:46:25;;;;;;;1.07;0.40;;;;;;;30.17;27.83;100455.59;1649048;85;21061;-59
2022/06/19 07:51:37;;;;;;;0.40;0.20;;;;;;;30.01;28.04;100454.64;1650177;85;21088;-58
2022/06/19 07:54:04;;;;;;;0.68;0.10;;;;;;;29.79;28.54;100452.75;1651255;86;21632;-59
2022/06/19 07:56:31;;;;;;;1.65;0.10;;;;;;;29.54;29.26;100448.70;1641632;85;21313;-59
2022/06/19 07:58:58;;;;;;;0.90;0.20;;;;;;;29.38;28.71;100449.63;1650859;85;21104;-60
2022/06/19 08:01:25;;;;;;;0.20;0.20;;;;;;;29.18;29.16;100440.52;1651303;85;21069;-63
2022/06/19 08:03:51;;;;;;;0.90;0.42;;;;;;;28.99;29.31;100446.14;1657025;85;21151;-60
2022/06/19 08:06:19;;;;;;;0.68;0.30;;;;;;;28.87;29.66;100448.87;1648738;85;21108;-61
2022/06/19 08:08:47;;;;;;;1.00;0.20;;;;;;;28.84;29.54;100446.76;1637150;85;21157;-60
2022/06/19 08:11:14;;;;;;;0.30;0.10;;;;;;;28.79;29.33;100453.72;1679467;84;21771;-61
2022/06/19 08:13:41;;;;;;;0.20;0.10;;;;;;;28.67;29.54;100456.17;1679779;84;21061;-58
2022/06/19 08:16:10;;;;;;;0.53;0.10;;;;;;;28.57;29.86;100446.23;1679978;84;21081;-59
2022/06/19 08:18:39;;;;;;;0.57;0.40;;;;;;;28.53;30.36;100444.66;1668378;84;21066;-59
2022/06/19 08:21:06;;;;;;;0.23;0.10;;;;;;;28.56;30.31;100446.54;1679943;84;21053;-61
2022/06/19 08:23:33;;;;;;;0.20;0.10;;;;;;;28.57;30.10;100441.32;1677389;84;21108;-59
2022/06/19 08:26:00;;;;;;;0.35;0.10;;;;;;;28.54;29.22;100438.64;1679302;84;21025;-61
2022/06/19 08:28:36;;;;;;;1.10;0.20;;;;;;;28.48;29.09;100443.39;1678930;84;21097;-61
2022/06/19 08:31:01;;;;;;;1.50;0.20;;;;;;;28.37;29.12;100448.83;1653322;85;21674;-59
2022/06/19 08:33:28;;;;;;;0.30;0.10;;;;;;;28.35;29.38;100449.70;1706532;83;21520;-61
2022/06/19 08:35:59;;;;;;;0.90;0.10;;;;;;;28.31;29.17;100440.44;1706846;83;21064;-61
2022/06/19 08:38:33;;;;;;;0.40;0.20;;;;;;;28.25;29.23;100441.09;1706015;83;21072;-65
2022/06/19 08:41:38;;;;;;;1.98;0.20;;;;;;;28.24;29.53;100441.42;1679414;84;21540;-60
2022/06/19 08:44:46;;;;;;;0.20;0.10;;;;;;;28.27;30.00;100426.52;1706555;82;21069;-61
2022/06/19 08:47:27;;;;;;;0.10;0.10;;;;;;;28.26;30.13;100431.77;1690017;83;21051;-61
2022/06/19 08:50:35;;;;;;;0.13;0.10;;;;;;;28.24;30.52;100431.27;1710531;83;21009;-60
2022/06/19 08:53:47;;;;;;;0.88;0.20;;;;;;;28.25;30.03;100427.39;1714532;83;21621;-59
2022/06/19 08:56:22;;;;;;;0.20;0.10;;;;;;;28.30;30.08;100431.98;1706042;83;21040;-60
2022/06/19 08:59:13;;;;;;;0.35;0.10;;;;;;;28.26;29.92;100429.59;1673804;84;21090;-59
2022/06/19 09:02:12;;;;;;;0.42;0.10;;;;;;;28.20;29.99;100424.77;1691294;84;21160;-59
2022/06/19 09:08:35;;;;;;;0.30;0.10;;;;;;;27.98;30.35;100418.62;1679155;84;21003;-60
2022/06/19 09:11:40;;;;;;;0.47;0.10;;;;;;;27.96;30.36;100426.33;1678853;84;21180;-62
2022/06/19 09:14:33;;;;;;;0.53;0.10;;;;;;;27.92;30.74;100419.84;1677147;84;21061;-62
2022/06/19 09:17:17;;;;;;;0.72;0.20;;;;;;;27.87;30.60;100408.94;1584013;85;21269;-61
2022/06/19 09:19:49;;;;;;;0.95;0.10;;;;;;;27.84;30.76;100410.37;1676556;84;21091;-62
2022/06/19 09:22:38;;;;;;;0.30;0.10;;;;;;;27.86;30.67;100412.25;1672400;84;21117;-62
2022/06/19 09:25:34;;;;;;;0.25;0.13;;;;;;;27.86;30.42;100410.88;1679463;84;21124;-63
2022/06/19 09:28:30;;;;;;;0.10;0.10;;;;;;;27.81;30.62;100406.05;1669706;84;21084;-63
2022/06/19 09:31:26;;;;;;;0.75;0.15;;;;;;;27.80;30.24;100398.94;1678991;84;21556;-62
2022/06/19 09:34:03;;;;;;;1.17;0.10;;;;;;;27.79;30.60;100400.06;1678503;84;21062;-59
2022/06/19 09:36:41;;;;;;;0.72;0.20;;;;;;;27.79;30.84;100400.06;1711187;83;21052;-60
2022/06/19 09:39:25;;;;;;;0.72;0.00;;;;;;;27.84;30.61;100397.21;1706314;83;21592;-61
2022/06/19 09:42:00;;;;;;;0.20;0.15;;;;;;;27.92;30.06;100389.14;1689042;83;21042;-60
2022/06/19 09:44:55;;;;;;;0.68;0.13;;;;;;;27.98;29.74;100387.12;1699177;83;21040;-62
2022/06/19 09:47:56;;;;;;;0.20;0.10;;;;;;;28.02;29.96;100388.69;1715267;83;21169;-59
2022/06/19 09:50:46;;;;;;;0.20;0.10;;;;;;;28.04;29.71;100383.16;1705324;83;20986;-60
2022/06/19 09:53:24;;;;;;;0.13;0.03;;;;;;;28.03;29.62;100388.93;1683850;83;21081;-60
2022/06/19 09:55:55;;;;;;;2.30;0.20;;;;;;;27.99;29.76;100380.53;1692119;83;21608;-59
2022/06/19 09:58:40;;;;;;;0.60;0.10;;;;;;;27.96;29.99;100386.61;1706371;83;21085;-59
2022/06/19 10:01:07;;;;;;;0.50;0.23;;;;;;;27.95;29.86;100384.98;1708105;82;20993;-61
2022/06/19 10:03:42;;;;;;;1.00;0.10;;;;;;;27.95;30.19;100388.55;1705834;83;20982;-58
2022/06/19 10:06:27;;;;;;;1.25;0.10;;;;;;;28.03;30.10;100387.02;1707467;82;21166;-59
2022/06/19 10:08:58;;;;;;;2.33;0.10;;;;;;;28.08;29.96;100381.42;1686467;83;21073;-60
2022/06/19 10:11:30;;;;;;;1.75;0.08;;;;;;;28.07;29.98;100390.77;1711166;83;21040;-59
2022/06/19 10:14:26;;;;;;;0.50;0.10;;;;;;;28.08;29.98;100391.02;1708730;83;20985;-60
2022/06/19 10:16:58;;;;;;;2.70;0.40;;;;;;;28.13;29.94;100399.70;1706574;83;21477;-59
2022/06/19 10:19:54;;;;;;;0.50;0.00;;;;;;;28.24;29.85;100398.38;1709458;83;21085;-58
2022/06/19 10:23:09;;;;;;;0.30;0.10;;;;;;;28.31;29.23;100400.16;1715767;83;22334;-59
2022/06/19 10:26:04;;;;;;;0.95;0.10;;;;;;;28.32;29.26;100400.96;1681225;83;21622;-60
2022/06/19 10:28:51;;;;;;;0.40;0.10;;;;;;;28.26;29.40;100395.34;1650815;85;21697;-59
2022/06/19 10:31:36;;;;;;;0.60;0.10;;;;;;;28.30;29.57;100392.23;1694605;83;21128;-62
2022/06/19 10:34:26;;;;;;;0.65;0.20;;;;;;;28.35;29.64;100393.51;1651458;85;21094;-60
2022/06/19 10:37:01;;;;;;;0.80;0.10;;;;;;;28.43;29.37;100383.17;1703556;83;21057;-58
2022/06/19 10:40:12;;;;;;;1.65;0.20;;;;;;;28.53;29.43;100387.09;1724628;83;21592;-59
2022/06/19 10:42:57;;;;;;;0.13;0.10;;;;;;;28.66;29.48;100383.27;1707188;83;21056;-58
2022/06/19 10:45:32;;;;;;;0.28;0.10;;;;;;;28.66;28.88;100384.63;1680219;84;21588;-59
2022/06/19 10:48:22;;;;;;;0.47;0.10;;;;;;;28.67;29.05;100382.13;1708140;83;21525;-58
2022/06/19 10:50:57;;;;;;;0.13;0.10;;;;;;;28.65;28.69;100384.37;1708000;83;21167;-59
2022/06/19 10:54:02;;;;;;;1.42;0.10;;;;;;;28.54;28.96;100385.17;1705936;83;21064;-60
2022/06/19 10:57:06;;;;;;;2.05;0.10;;;;;;;28.48;29.36;100385.81;1708626;83;21017;-59
2022/06/19 10:59:33;;;;;;;4.03;0.10;;;;;;;28.53;29.40;100381.60;1715800;83;21028;-60
2022/06/19 11:05:19;;;;;;;0.25;0.00;;;;;;;28.39;29.34;100371.21;1672774;84;21093;-60
2022/06/19 11:09:07;;;;;;;;;;;;;;;28.45;29.70;100367.23;1783557;78;22919;-59
2022/06/19 11:11:38;;;;;;;2.27;0.10;;;;;;;28.43;29.36;100365.36;1737585;80;20156;-59
2022/06/19 11:14:12;;;;;;;0.70;0.10;;;;;;;28.36;29.69;100369.07;1698018;83;21091;-59
2022/06/19 11:17:00;;;;;;;2.22;0.10;;;;;;;28.39;29.44;100362.16;1687251;83;21012;-59
2022/06/19 11:19:46;;;;;;;0.82;0.10;;;;;;;28.39;29.74;100367.64;1695274;83;20997;-58
2022/06/19 11:22:41;;;;;;;1.25;0.17;;;;;;;28.35;29.82;100352.39;1710063;81;21008;-59
2022/06/19 11:25:30;;;;;;;1.85;0.30;;;;;;;28.30;29.94;100336.05;1712880;81;21033;-59
2022/06/19 11:28:11;;;;;;;1.10;0.30;;;;;;;28.38;30.02;100342.16;1693633;83;21067;-62
2022/06/19 11:30:42;;;;;;;0.10;0.10;;;;;;;28.42;30.21;100351.39;1664693;84;21588;-59
2022/06/19 11:33:18;;;;;;;0.42;0.10;;;;;;;28.48;30.24;100350.72;1685277;83;21290;-60
2022/06/19 11:35:56;;;;;;;3.50;0.20;;;;;;;28.50;29.64;100349.84;1667090;84;21005;-61
2022/06/19 11:38:42;;;;;;;0.45;0.10;;;;;;;28.49;29.91;100344.12;1663240;84;21142;-59
2022/06/19 11:41:36;;;;;;;0.55;0.10;;;;;;;28.46;30.03;100338.71;1675610;84;21642;-58
2022/06/19 11:44:17;;;;;;;0.47;0.10;;;;;;;28.49;30.18;100346.30;1665867;84;21030;-58
2022/06/19 11:46:52;;;;;;;0.82;0.10;;;;;;;28.59;29.87;100343.91;1658362;84;21033;-60
2022/06/19 11:49:32;;;;;;;2.70;0.10;;;;;;;28.68;29.60;100336.58;1665228;84;21501;-59
2022/06/19 11:52:05;;;;;;;1.20;0.10;;;;;;;28.75;29.57;100337.53;1652320;84;21065;-59
2022/06/19 11:54:40;;;;;;;1.85;0.13;;;;;;;28.80;29.60;100336.58;1664136;84;21535;-59
2022/06/19 11:57:21;;;;;;;4.65;0.20;;;;;;;28.82;29.55;100335.70;1616616;83;21128;-61
2022/06/19 11:59:47;;;;;;;0.75;0.10;;;;;;;28.82;29.59;100335.17;1614535;86;21234;-62
2022/06/19 12:02:26;;;;;;;0.72;0.10;;;;;;;28.78;29.89;100328.66;1656568;84;21076;-60
2022/06/19 12:05:01;;;;;;;2.15;0.10;;;;;;;28.80;29.59;100325.07;1664958;84;21048;-60
2022/06/19 12:07:31;;;;;;;0.60;0.25;;;;;;;28.77;29.77;100325.69;1660791;84;21140;-62